sensor_id;sensor_type;location;lat;lon;timestamp;temperature;humidity
30572;DHT22;17348;50.948;10.696;2023-03-14T00:01:37;11.00;99.90
30572;DHT22;17348;50.948;10.696;2023-03-14T00:04:39;11.00;99.90
30572;DHT22;17348;50.948;10.696;2023-03-14T00:07:41;10.90;99.90
30572;DHT22;17348;50.948;10.696;2023-03-14T00:10:43;10.90;99.90
30572;DHT22;17348;50.948;10.696;2023-03-14T00:13:47;10.90;99.90
30572;DHT22;17348;50.948;10.696;2023-03-14T00:16:51;10.80;99.90
30572;DHT22;17348;50.948;10.696;2023-03-14T00:19:53;10.80;99.90
30572;DHT22;17348;50.948;10.696;2023-03-14T00:22:56;10.80;99.90
30572;DHT22;17348;50.948;10.696;2023-03-14T00:25:59;10.80;99.90
30572;DHT22;17348;50.948;10.696;2023-03-14T00:29:01;10.80;99.90
30572;DHT22;17348;50.948;10.696;2023-03-14T00:32:05;10.80;99.90
30572;DHT22;17348;50.948;10.696;2023-03-14T00:35:08;10.90;99.90
30572;DHT22;17348;50.948;10.696;2023-03-14T00:38:10;10.90;99.90
30572;DHT22;17348;50.948;10.696;2023-03-14T00:41:14;10.90;99.90
30572;DHT22;17348;50.948;10.696;2023-03-14T00:44:17;10.90;99.90
30572;DHT22;17348;50.948;10.696;2023-03-14T00:47:20;10.90;99.90
30572;DHT22;17348;50.948;10.696;2023-03-14T00:50:23;10.90;99.90
30572;DHT22;17348;50.948;10.696;2023-03-14T00:53:25;10.90;99.90
30572;DHT22;17348;50.948;10.696;2023-03-14T00:56:27;10.90;99.90
30572;DHT22;17348;50.948;10.696;2023-03-14T00:59:30;10.90;99.90
30572;DHT22;17348;50.948;10.696;2023-03-14T01:02:33;10.90;99.90
30572;DHT22;17348;50.948;10.696;2023-03-14T01:05:36;10.90;99.90
30572;DHT22;17348;50.948;10.696;2023-03-14T01:08:38;10.90;99.90
30572;DHT22;17348;50.948;10.696;2023-03-14T01:11:41;11.00;99.90
30572;DHT22;17348;50.948;10.696;2023-03-14T01:14:47;11.00;99.90
30572;DHT22;17348;50.948;10.696;2023-03-14T01:17:51;11.10;99.90
30572;DHT22;17348;50.948;10.696;2023-03-14T01:20:53;11.10;99.90
30572;DHT22;17348;50.948;10.696;2023-03-14T01:23:56;11.10;99.90
30572;DHT22;17348;50.948;10.696;2023-03-14T01:26:59;11.00;99.90
30572;DHT22;17348;50.948;10.696;2023-03-14T01:30:02;11.10;99.90
30572;DHT22;17348;50.948;10.696;2023-03-14T01:33:06;11.00;99.90
30572;DHT22;17348;50.948;10.696;2023-03-14T01:36:09;11.00;99.90
30572;DHT22;17348;50.948;10.696;2023-03-14T01:39:12;11.00;99.90
30572;DHT22;17348;50.948;10.696;2023-03-14T01:42:15;11.00;99.90
30572;DHT22;17348;50.948;10.696;2023-03-14T01:49:07;11.00;99.90
30572;DHT22;17348;50.948;10.696;2023-03-14T01:52:12;11.00;99.90
30572;DHT22;17348;50.948;10.696;2023-03-14T01:55:19;11.00;99.90
30572;DHT22;17348;50.948;10.696;2023-03-14T01:58:25;11.00;99.90
30572;DHT22;17348;50.948;10.696;2023-03-14T02:01:29;11.10;99.90
30572;DHT22;17348;50.948;10.696;2023-03-14T02:04:35;11.10;99.90
30572;DHT22;17348;50.948;10.696;2023-03-14T02:07:43;11.10;99.90
30572;DHT22;17348;50.948;10.696;2023-03-14T02:10:50;11.20;99.90
30572;DHT22;17348;50.948;10.696;2023-03-14T02:13:53;11.10;99.90
30572;DHT22;17348;50.948;10.696;2023-03-14T02:16:55;11.20;99.90
30572;DHT22;17348;50.948;10.696;2023-03-14T02:20:23;11.10;99.90
30572;DHT22;17348;50.948;10.696;2023-03-14T02:23:31;11.10;99.90
30572;DHT22;17348;50.948;10.696;2023-03-14T02:26:39;11.10;99.90
30572;DHT22;17348;50.948;10.696;2023-03-14T02:29:49;11.10;99.90
30572;DHT22;17348;50.948;10.696;2023-03-14T02:32:55;11.10;99.90
30572;DHT22;17348;50.948;10.696;2023-03-14T02:36:01;11.10;99.90
30572;DHT22;17348;50.948;10.696;2023-03-14T02:39:08;11.00;99.90
30572;DHT22;17348;50.948;10.696;2023-03-14T02:42:12;11.00;99.90
30572;DHT22;17348;50.948;10.696;2023-03-14T02:45:43;10.90;99.90
30572;DHT22;17348;50.948;10.696;2023-03-14T02:48:49;10.90;99.90
30572;DHT22;17348;50.948;10.696;2023-03-14T02:51:53;10.80;99.90
30572;DHT22;17348;50.948;10.696;2023-03-14T02:54:55;10.70;99.90
30572;DHT22;17348;50.948;10.696;2023-03-14T02:57:57;10.70;99.90
30572;DHT22;17348;50.948;10.696;2023-03-14T03:01:01;10.60;99.90
30572;DHT22;17348;50.948;10.696;2023-03-14T03:04:04;10.60;99.90
30572;DHT22;17348;50.948;10.696;2023-03-14T03:07:07;10.60;99.90
30572;DHT22;17348;50.948;10.696;2023-03-14T03:10:10;10.60;99.90
30572;DHT22;17348;50.948;10.696;2023-03-14T03:13:12;10.60;99.90
30572;DHT22;17348;50.948;10.696;2023-03-14T03:16:16;10.60;99.90
30572;DHT22;17348;50.948;10.696;2023-03-14T03:19:19;10.50;99.90
30572;DHT22;17348;50.948;10.696;2023-03-14T03:22:21;10.50;99.90
30572;DHT22;17348;50.948;10.696;2023-03-14T03:25:24;10.50;99.90
30572;DHT22;17348;50.948;10.696;2023-03-14T03:28:26;10.60;99.90
30572;DHT22;17348;50.948;10.696;2023-03-14T03:31:30;10.60;99.90
30572;DHT22;17348;50.948;10.696;2023-03-14T03:34:32;10.60;99.90
30572;DHT22;17348;50.948;10.696;2023-03-14T03:37:36;10.60;99.90
30572;DHT22;17348;50.948;10.696;2023-03-14T03:40:38;10.60;99.90
30572;DHT22;17348;50.948;10.696;2023-03-14T03:43:41;10.60;99.90
30572;DHT22;17348;50.948;10.696;2023-03-14T03:46:44;10.60;99.90
30572;DHT22;17348;50.948;10.696;2023-03-14T03:49:46;10.60;99.90
30572;DHT22;17348;50.948;10.696;2023-03-14T03:52:49;10.60;99.90
30572;DHT22;17348;50.948;10.696;2023-03-14T03:55:51;10.60;99.90
30572;DHT22;17348;50.948;10.696;2023-03-14T03:58:53;10.60;99.90
30572;DHT22;17348;50.948;10.696;2023-03-14T04:01:57;10.60;99.90
30572;DHT22;17348;50.948;10.696;2023-03-14T04:05:00;10.60;99.90
30572;DHT22;17348;50.948;10.696;2023-03-14T04:08:03;10.60;99.90
30572;DHT22;17348;50.948;10.696;2023-03-14T04:11:06;10.50;99.90
30572;DHT22;17348;50.948;10.696;2023-03-14T04:14:08;10.50;99.90
30572;DHT22;17348;50.948;10.696;2023-03-14T04:17:12;10.50;99.90
30572;DHT22;17348;50.948;10.696;2023-03-14T04:20:14;10.40;99.90
30572;DHT22;17348;50.948;10.696;2023-03-14T04:23:16;10.40;99.90
30572;DHT22;17348;50.948;10.696;2023-03-14T04:26:19;10.40;99.90
30572;DHT22;17348;50.948;10.696;2023-03-14T04:29:21;10.40;99.90
30572;DHT22;17348;50.948;10.696;2023-03-14T04:32:25;10.40;99.90
30572;DHT22;17348;50.948;10.696;2023-03-14T04:35:29;10.40;99.90
30572;DHT22;17348;50.948;10.696;2023-03-14T04:38:32;10.40;99.90
30572;DHT22;17348;50.948;10.696;2023-03-14T04:41:34;10.40;99.90
30572;DHT22;17348;50.948;10.696;2023-03-14T04:44:37;10.40;99.90
30572;DHT22;17348;50.948;10.696;2023-03-14T04:47:40;10.40;99.90
30572;DHT22;17348;50.948;10.696;2023-03-14T04:50:43;10.40;99.90
30572;DHT22;17348;50.948;10.696;2023-03-14T04:53:47;10.30;99.90
30572;DHT22;17348;50.948;10.696;2023-03-14T04:56:49;10.30;99.90
30572;DHT22;17348;50.948;10.696;2023-03-14T04:59:52;10.30;99.90
30572;DHT22;17348;50.948;10.696;2023-03-14T05:02:55;10.30;99.90
30572;DHT22;17348;50.948;10.696;2023-03-14T05:05:58;10.30;99.90
30572;DHT22;17348;50.948;10.696;2023-03-14T05:09:01;10.40;99.90
30572;DHT22;17348;50.948;10.696;2023-03-14T05:12:06;10.30;99.90
30572;DHT22;17348;50.948;10.696;2023-03-14T05:15:09;10.30;99.90
30572;DHT22;17348;50.948;10.696;2023-03-14T05:18:13;10.30;99.90
30572;DHT22;17348;50.948;10.696;2023-03-14T05:21:15;10.20;99.90
30572;DHT22;17348;50.948;10.696;2023-03-14T05:24:18;10.20;99.90
30572;DHT22;17348;50.948;10.696;2023-03-14T05:27:20;10.20;99.90
30572;DHT22;17348;50.948;10.696;2023-03-14T05:30:22;10.20;99.90
30572;DHT22;17348;50.948;10.696;2023-03-14T05:33:26;10.20;99.90
30572;DHT22;17348;50.948;10.696;2023-03-14T05:36:28;10.20;99.90
30572;DHT22;17348;50.948;10.696;2023-03-14T05:39:31;10.20;99.90
30572;DHT22;17348;50.948;10.696;2023-03-14T05:42:33;10.20;99.90
30572;DHT22;17348;50.948;10.696;2023-03-14T05:45:38;10.20;99.90
30572;DHT22;17348;50.948;10.696;2023-03-14T05:48:42;10.20;99.90
30572;DHT22;17348;50.948;10.696;2023-03-14T05:51:44;10.10;99.90
30572;DHT22;17348;50.948;10.696;2023-03-14T05:54:47;10.20;99.90
30572;DHT22;17348;50.948;10.696;2023-03-14T05:57:49;10.20;99.90
30572;DHT22;17348;50.948;10.696;2023-03-14T06:00:51;10.30;99.90
30572;DHT22;17348;50.948;10.696;2023-03-14T06:03:55;10.40;99.90
30572;DHT22;17348;50.948;10.696;2023-03-14T06:06:57;10.50;99.90
30572;DHT22;17348;50.948;10.696;2023-03-14T06:10:00;10.50;99.90
30572;DHT22;17348;50.948;10.696;2023-03-14T06:13:02;10.60;99.90
30572;DHT22;17348;50.948;10.696;2023-03-14T06:16:06;10.60;99.90
30572;DHT22;17348;50.948;10.696;2023-03-14T06:19:09;10.60;99.90
30572;DHT22;17348;50.948;10.696;2023-03-14T06:22:12;10.70;99.90
30572;DHT22;17348;50.948;10.696;2023-03-14T06:25:15;10.60;99.90
30572;DHT22;17348;50.948;10.696;2023-03-14T06:28:17;10.70;99.90
30572;DHT22;17348;50.948;10.696;2023-03-14T06:31:20;10.60;99.90
30572;DHT22;17348;50.948;10.696;2023-03-14T06:34:24;10.70;99.90
30572;DHT22;17348;50.948;10.696;2023-03-14T06:37:26;10.70;99.90
30572;DHT22;17348;50.948;10.696;2023-03-14T06:40:30;11.00;99.90
30572;DHT22;17348;50.948;10.696;2023-03-14T06:43:32;10.90;99.90
30572;DHT22;17348;50.948;10.696;2023-03-14T06:46:35;11.10;99.90
30572;DHT22;17348;50.948;10.696;2023-03-14T06:49:38;12.30;99.90
30572;DHT22;17348;50.948;10.696;2023-03-14T06:52:41;13.50;99.90
30572;DHT22;17348;50.948;10.696;2023-03-14T06:55:48;13.50;99.90
30572;DHT22;17348;50.948;10.696;2023-03-14T06:58:51;13.20;99.90
30572;DHT22;17348;50.948;10.696;2023-03-14T07:01:53;12.90;99.90
30572;DHT22;17348;50.948;10.696;2023-03-14T07:04:57;12.40;99.90
30572;DHT22;17348;50.948;10.696;2023-03-14T07:08:00;12.10;99.90
30572;DHT22;17348;50.948;10.696;2023-03-14T07:11:03;11.90;99.90
30572;DHT22;17348;50.948;10.696;2023-03-14T07:14:05;11.80;99.90
30572;DHT22;17348;50.948;10.696;2023-03-14T07:17:08;11.70;99.90
30572;DHT22;17348;50.948;10.696;2023-03-14T07:20:12;11.60;99.90
30572;DHT22;17348;50.948;10.696;2023-03-14T07:23:14;11.60;99.90
30572;DHT22;17348;50.948;10.696;2023-03-14T07:26:17;11.50;99.90
30572;DHT22;17348;50.948;10.696;2023-03-14T07:29:19;11.50;99.90
30572;DHT22;17348;50.948;10.696;2023-03-14T07:32:22;11.50;99.90
30572;DHT22;17348;50.948;10.696;2023-03-14T07:35:25;11.40;99.90
30572;DHT22;17348;50.948;10.696;2023-03-14T07:38:28;11.30;99.90
30572;DHT22;17348;50.948;10.696;2023-03-14T07:41:30;11.30;99.90
30572;DHT22;17348;50.948;10.696;2023-03-14T07:44:33;11.30;99.90
30572;DHT22;17348;50.948;10.696;2023-03-14T07:47:35;11.40;99.90
30572;DHT22;17348;50.948;10.696;2023-03-14T07:50:39;11.50;99.90
30572;DHT22;17348;50.948;10.696;2023-03-14T07:53:41;11.60;99.90
30572;DHT22;17348;50.948;10.696;2023-03-14T07:56:45;11.70;99.90
30572;DHT22;17348;50.948;10.696;2023-03-14T07:59:47;11.80;99.90
30572;DHT22;17348;50.948;10.696;2023-03-14T08:02:50;11.90;99.90
30572;DHT22;17348;50.948;10.696;2023-03-14T08:05:53;12.00;99.90
30572;DHT22;17348;50.948;10.696;2023-03-14T08:08:56;12.10;99.90
30572;DHT22;17348;50.948;10.696;2023-03-14T08:12:00;12.30;99.90
30572;DHT22;17348;50.948;10.696;2023-03-14T08:15:03;12.90;99.90
30572;DHT22;17348;50.948;10.696;2023-03-14T08:18:06;12.80;99.90
30572;DHT22;17348;50.948;10.696;2023-03-14T08:21:10;12.70;99.90
30572;DHT22;17348;50.948;10.696;2023-03-14T08:24:13;12.70;99.90
30572;DHT22;17348;50.948;10.696;2023-03-14T08:27:15;12.80;99.90
30572;DHT22;17348;50.948;10.696;2023-03-14T08:30:19;12.70;99.90
30572;DHT22;17348;50.948;10.696;2023-03-14T08:33:21;12.70;99.90
30572;DHT22;17348;50.948;10.696;2023-03-14T08:36:25;12.70;99.90
30572;DHT22;17348;50.948;10.696;2023-03-14T08:39:28;12.50;99.90
30572;DHT22;17348;50.948;10.696;2023-03-14T08:42:30;12.60;99.90
30572;DHT22;17348;50.948;10.696;2023-03-14T08:45:32;12.70;99.90
30572;DHT22;17348;50.948;10.696;2023-03-14T08:48:35;12.70;99.90
30572;DHT22;17348;50.948;10.696;2023-03-14T08:51:39;12.80;99.90
30572;DHT22;17348;50.948;10.696;2023-03-14T08:54:42;12.90;99.90
30572;DHT22;17348;50.948;10.696;2023-03-14T08:57:45;13.00;99.90
30572;DHT22;17348;50.948;10.696;2023-03-14T09:00:48;13.00;99.90
30572;DHT22;17348;50.948;10.696;2023-03-14T09:03:50;13.20;99.90
30572;DHT22;17348;50.948;10.696;2023-03-14T09:06:54;13.30;99.90
30572;DHT22;17348;50.948;10.696;2023-03-14T09:09:58;13.40;99.90
30572;DHT22;17348;50.948;10.696;2023-03-14T09:13:01;13.40;99.90
30572;DHT22;17348;50.948;10.696;2023-03-14T09:16:04;13.20;99.90
30572;DHT22;17348;50.948;10.696;2023-03-14T09:19:06;13.10;99.90
30572;DHT22;17348;50.948;10.696;2023-03-14T09:22:10;13.10;99.90
30572;DHT22;17348;50.948;10.696;2023-03-14T09:25:12;13.10;99.90
30572;DHT22;17348;50.948;10.696;2023-03-14T09:28:15;13.00;99.90
30572;DHT22;17348;50.948;10.696;2023-03-14T09:31:18;13.00;99.90
30572;DHT22;17348;50.948;10.696;2023-03-14T09:34:21;13.00;99.90
30572;DHT22;17348;50.948;10.696;2023-03-14T09:37:25;12.90;99.90
30572;DHT22;17348;50.948;10.696;2023-03-14T09:40:32;13.00;99.90
30572;DHT22;17348;50.948;10.696;2023-03-14T09:43:36;13.00;99.90
30572;DHT22;17348;50.948;10.696;2023-03-14T09:46:40;13.10;99.90
30572;DHT22;17348;50.948;10.696;2023-03-14T09:49:43;13.10;99.90
30572;DHT22;17348;50.948;10.696;2023-03-14T09:52:49;13.20;99.90
30572;DHT22;17348;50.948;10.696;2023-03-14T09:55:52;13.30;99.90
30572;DHT22;17348;50.948;10.696;2023-03-14T09:58:57;13.30;99.90
30572;DHT22;17348;50.948;10.696;2023-03-14T10:02:01;13.30;99.90
30572;DHT22;17348;50.948;10.696;2023-03-14T10:05:15;13.40;99.90
30572;DHT22;17348;50.948;10.696;2023-03-14T10:08:20;13.50;99.90
30572;DHT22;17348;50.948;10.696;2023-03-14T10:11:23;13.30;99.90
30572;DHT22;17348;50.948;10.696;2023-03-14T10:14:32;13.30;99.90
30572;DHT22;17348;50.948;10.696;2023-03-14T10:17:39;13.20;99.90
30572;DHT22;17348;50.948;10.696;2023-03-14T10:20:44;13.30;99.90
30572;DHT22;17348;50.948;10.696;2023-03-14T10:23:48;13.30;99.90
30572;DHT22;17348;50.948;10.696;2023-03-14T10:26:52;13.20;99.90
30572;DHT22;17348;50.948;10.696;2023-03-14T10:29:56;13.10;99.90
30572;DHT22;17348;50.948;10.696;2023-03-14T10:33:08;13.10;99.90
30572;DHT22;17348;50.948;10.696;2023-03-14T10:36:20;13.10;99.90
30572;DHT22;17348;50.948;10.696;2023-03-14T10:39:28;13.10;99.90
30572;DHT22;17348;50.948;10.696;2023-03-14T10:42:33;12.90;99.90
30572;DHT22;17348;50.948;10.696;2023-03-14T10:45:38;12.90;99.90
30572;DHT22;17348;50.948;10.696;2023-03-14T10:48:41;12.90;99.90
30572;DHT22;17348;50.948;10.696;2023-03-14T10:51:43;12.90;99.90
30572;DHT22;17348;50.948;10.696;2023-03-14T10:54:49;12.80;99.90
30572;DHT22;17348;50.948;10.696;2023-03-14T10:57:55;12.90;99.90
30572;DHT22;17348;50.948;10.696;2023-03-14T11:01:02;12.90;99.90
30572;DHT22;17348;50.948;10.696;2023-03-14T11:04:20;13.00;99.90
30572;DHT22;17348;50.948;10.696;2023-03-14T11:07:28;13.00;99.90
30572;DHT22;17348;50.948;10.696;2023-03-14T11:10:34;13.20;99.90
30572;DHT22;17348;50.948;10.696;2023-03-14T11:13:43;13.30;99.90
30572;DHT22;17348;50.948;10.696;2023-03-14T11:16:53;13.40;99.90
30572;DHT22;17348;50.948;10.696;2023-03-14T11:20:04;13.50;99.90
30572;DHT22;17348;50.948;10.696;2023-03-14T11:23:14;13.60;99.90
30572;DHT22;17348;50.948;10.696;2023-03-14T11:26:30;13.90;99.90
30572;DHT22;17348;50.948;10.696;2023-03-14T11:29:39;14.10;99.90
30572;DHT22;17348;50.948;10.696;2023-03-14T11:32:45;14.10;99.90
30572;DHT22;17348;50.948;10.696;2023-03-14T11:35:51;14.20;99.90
30572;DHT22;17348;50.948;10.696;2023-03-14T11:38:57;14.20;99.90
30572;DHT22;17348;50.948;10.696;2023-03-14T11:42:02;14.20;99.90
30572;DHT22;17348;50.948;10.696;2023-03-14T11:45:10;14.20;99.90
30572;DHT22;17348;50.948;10.696;2023-03-14T11:48:23;14.20;99.90
30572;DHT22;17348;50.948;10.696;2023-03-14T11:51:30;14.30;99.90
30572;DHT22;17348;50.948;10.696;2023-03-14T11:54:40;14.30;99.90
30572;DHT22;17348;50.948;10.696;2023-03-14T11:57:50;14.40;99.90
30572;DHT22;17348;50.948;10.696;2023-03-14T12:00:54;14.40;99.90
30572;DHT22;17348;50.948;10.696;2023-03-14T12:04:03;14.50;99.90
30572;DHT22;17348;50.948;10.696;2023-03-14T12:07:14;14.50;99.90
30572;DHT22;17348;50.948;10.696;2023-03-14T12:10:19;14.50;99.90
30572;DHT22;17348;50.948;10.696;2023-03-14T12:13:28;14.60;99.90
30572;DHT22;17348;50.948;10.696;2023-03-14T12:16:34;14.50;99.90
30572;DHT22;17348;50.948;10.696;2023-03-14T12:19:38;14.50;99.90
30572;DHT22;17348;50.948;10.696;2023-03-14T12:22:43;14.50;99.90
30572;DHT22;17348;50.948;10.696;2023-03-14T12:25:47;14.40;99.90
30572;DHT22;17348;50.948;10.696;2023-03-14T12:28:52;14.30;99.90
30572;DHT22;17348;50.948;10.696;2023-03-14T12:32:12;14.30;99.90
30572;DHT22;17348;50.948;10.696;2023-03-14T12:35:35;14.30;99.90
30572;DHT22;17348;50.948;10.696;2023-03-14T12:38:46;14.40;99.90
30572;DHT22;17348;50.948;10.696;2023-03-14T12:41:53;14.40;99.90
30572;DHT22;17348;50.948;10.696;2023-03-14T12:45:22;14.30;99.90
30572;DHT22;17348;50.948;10.696;2023-03-14T12:48:25;14.30;99.90
30572;DHT22;17348;50.948;10.696;2023-03-14T12:51:33;14.30;99.90
30572;DHT22;17348;50.948;10.696;2023-03-14T12:54:41;14.60;99.90
30572;DHT22;17348;50.948;10.696;2023-03-14T12:57:50;14.90;99.90
30572;DHT22;17348;50.948;10.696;2023-03-14T13:00:59;15.00;99.90
30572;DHT22;17348;50.948;10.696;2023-03-14T13:04:06;14.90;99.90
30572;DHT22;17348;50.948;10.696;2023-03-14T13:07:12;14.90;99.90
30572;DHT22;17348;50.948;10.696;2023-03-14T13:10:19;14.60;99.90
30572;DHT22;17348;50.948;10.696;2023-03-14T13:13:24;14.40;99.90
30572;DHT22;17348;50.948;10.696;2023-03-14T13:16:29;14.30;99.90
30572;DHT22;17348;50.948;10.696;2023-03-14T13:19:33;14.20;99.90
30572;DHT22;17348;50.948;10.696;2023-03-14T13:22:35;14.10;99.90
30572;DHT22;17348;50.948;10.696;2023-03-14T13:25:39;14.00;99.90
30572;DHT22;17348;50.948;10.696;2023-03-14T13:28:42;13.90;99.90
30572;DHT22;17348;50.948;10.696;2023-03-14T13:31:46;13.80;99.90
30572;DHT22;17348;50.948;10.696;2023-03-14T13:34:49;13.80;99.90
30572;DHT22;17348;50.948;10.696;2023-03-14T13:37:56;13.70;99.90
30572;DHT22;17348;50.948;10.696;2023-03-14T13:40:59;13.70;99.90
30572;DHT22;17348;50.948;10.696;2023-03-14T13:44:06;13.60;99.90
30572;DHT22;17348;50.948;10.696;2023-03-14T13:47:15;13.40;99.90
30572;DHT22;17348;50.948;10.696;2023-03-14T13:50:18;13.20;99.90
30572;DHT22;17348;50.948;10.696;2023-03-14T13:53:21;13.00;99.90
30572;DHT22;17348;50.948;10.696;2023-03-14T13:56:26;12.80;99.90
30572;DHT22;17348;50.948;10.696;2023-03-14T13:59:29;12.60;99.90
30572;DHT22;17348;50.948;10.696;2023-03-14T14:02:36;12.40;99.90
30572;DHT22;17348;50.948;10.696;2023-03-14T14:05:40;12.10;99.90
30572;DHT22;17348;50.948;10.696;2023-03-14T14:08:46;11.80;99.90
30572;DHT22;17348;50.948;10.696;2023-03-14T14:11:51;11.10;99.90
30572;DHT22;17348;50.948;10.696;2023-03-14T14:14:58;10.10;99.90
30572;DHT22;17348;50.948;10.696;2023-03-14T14:18:04;9.60;99.90
30572;DHT22;17348;50.948;10.696;2023-03-14T14:21:08;9.20;99.90
30572;DHT22;17348;50.948;10.696;2023-03-14T14:24:13;9.00;99.90
30572;DHT22;17348;50.948;10.696;2023-03-14T14:27:18;8.70;99.90
30572;DHT22;17348;50.948;10.696;2023-03-14T14:30:31;8.60;99.90
30572;DHT22;17348;50.948;10.696;2023-03-14T14:33:42;8.60;99.90
30572;DHT22;17348;50.948;10.696;2023-03-14T14:36:45;8.50;99.90
30572;DHT22;17348;50.948;10.696;2023-03-14T14:39:51;8.60;99.90
30572;DHT22;17348;50.948;10.696;2023-03-14T14:42:55;8.60;99.90
30572;DHT22;17348;50.948;10.696;2023-03-14T14:46:07;8.50;99.90
30572;DHT22;17348;50.948;10.696;2023-03-14T14:49:13;8.30;99.90
30572;DHT22;17348;50.948;10.696;2023-03-14T14:52:18;8.10;99.90
30572;DHT22;17348;50.948;10.696;2023-03-14T14:55:21;7.80;99.90
30572;DHT22;17348;50.948;10.696;2023-03-14T14:58:25;7.60;99.90
30572;DHT22;17348;50.948;10.696;2023-03-14T15:01:33;7.40;99.90
30572;DHT22;17348;50.948;10.696;2023-03-14T15:04:37;7.30;99.90
30572;DHT22;17348;50.948;10.696;2023-03-14T15:07:40;7.20;99.90
30572;DHT22;17348;50.948;10.696;2023-03-14T15:10:42;7.00;99.90
30572;DHT22;17348;50.948;10.696;2023-03-14T15:13:45;6.70;99.90
30572;DHT22;17348;50.948;10.696;2023-03-14T15:16:47;6.50;99.90
30572;DHT22;17348;50.948;10.696;2023-03-14T15:19:51;6.40;99.90
30572;DHT22;17348;50.948;10.696;2023-03-14T15:22:53;6.30;99.90
30572;DHT22;17348;50.948;10.696;2023-03-14T15:25:56;6.20;99.90
30572;DHT22;17348;50.948;10.696;2023-03-14T15:28:58;6.00;99.90
30572;DHT22;17348;50.948;10.696;2023-03-14T15:32:00;5.90;99.90
30572;DHT22;17348;50.948;10.696;2023-03-14T15:35:05;5.70;99.90
30572;DHT22;17348;50.948;10.696;2023-03-14T15:38:10;5.60;99.90
30572;DHT22;17348;50.948;10.696;2023-03-14T15:41:13;5.60;99.90
30572;DHT22;17348;50.948;10.696;2023-03-14T15:44:17;5.60;99.90
30572;DHT22;17348;50.948;10.696;2023-03-14T15:47:19;5.50;99.90
30572;DHT22;17348;50.948;10.696;2023-03-14T15:50:23;5.50;99.90
30572;DHT22;17348;50.948;10.696;2023-03-14T15:53:26;5.50;99.90
30572;DHT22;17348;50.948;10.696;2023-03-14T15:56:29;5.60;99.90
30572;DHT22;17348;50.948;10.696;2023-03-14T15:59:32;5.40;99.90
30572;DHT22;17348;50.948;10.696;2023-03-14T16:02:34;5.40;99.90
30572;DHT22;17348;50.948;10.696;2023-03-14T16:05:42;5.40;99.90
30572;DHT22;17348;50.948;10.696;2023-03-14T16:08:45;5.40;99.90
30572;DHT22;17348;50.948;10.696;2023-03-14T16:11:47;5.50;99.90
30572;DHT22;17348;50.948;10.696;2023-03-14T16:14:50;5.50;99.90
30572;DHT22;17348;50.948;10.696;2023-03-14T16:17:52;5.50;99.90
30572;DHT22;17348;50.948;10.696;2023-03-14T16:20:57;5.50;99.90
30572;DHT22;17348;50.948;10.696;2023-03-14T16:24:00;5.60;99.90
30572;DHT22;17348;50.948;10.696;2023-03-14T16:27:07;5.50;99.90
30572;DHT22;17348;50.948;10.696;2023-03-14T16:30:10;5.50;99.90
30572;DHT22;17348;50.948;10.696;2023-03-14T16:33:14;5.50;99.90
30572;DHT22;17348;50.948;10.696;2023-03-14T16:36:17;5.50;99.90
30572;DHT22;17348;50.948;10.696;2023-03-14T16:39:20;5.50;99.90
30572;DHT22;17348;50.948;10.696;2023-03-14T16:42:23;5.50;99.90
30572;DHT22;17348;50.948;10.696;2023-03-14T16:45:26;5.50;99.90
30572;DHT22;17348;50.948;10.696;2023-03-14T16:48:29;5.50;99.90
30572;DHT22;17348;50.948;10.696;2023-03-14T16:51:33;5.40;99.90
30572;DHT22;17348;50.948;10.696;2023-03-14T16:54:36;5.40;99.90
30572;DHT22;17348;50.948;10.696;2023-03-14T16:57:38;5.40;99.90
30572;DHT22;17348;50.948;10.696;2023-03-14T17:00:44;5.40;99.90
30572;DHT22;17348;50.948;10.696;2023-03-14T17:03:47;5.30;99.90
30572;DHT22;17348;50.948;10.696;2023-03-14T17:06:52;5.20;99.90
30572;DHT22;17348;50.948;10.696;2023-03-14T17:09:54;5.20;99.90
30572;DHT22;17348;50.948;10.696;2023-03-14T17:12:56;5.20;99.90
30572;DHT22;17348;50.948;10.696;2023-03-14T17:16:00;5.20;99.90
30572;DHT22;17348;50.948;10.696;2023-03-14T17:19:02;5.10;99.90
30572;DHT22;17348;50.948;10.696;2023-03-14T17:22:06;5.10;99.90
30572;DHT22;17348;50.948;10.696;2023-03-14T17:25:09;5.10;99.90
30572;DHT22;17348;50.948;10.696;2023-03-14T17:28:11;5.10;99.90
30572;DHT22;17348;50.948;10.696;2023-03-14T17:31:16;5.20;99.90
30572;DHT22;17348;50.948;10.696;2023-03-14T17:34:18;5.10;99.90
30572;DHT22;17348;50.948;10.696;2023-03-14T17:37:22;5.10;99.90
30572;DHT22;17348;50.948;10.696;2023-03-14T17:40:24;5.10;99.90
30572;DHT22;17348;50.948;10.696;2023-03-14T17:43:27;5.10;99.90
30572;DHT22;17348;50.948;10.696;2023-03-14T17:46:29;5.10;99.90
30572;DHT22;17348;50.948;10.696;2023-03-14T17:49:32;5.00;99.90
30572;DHT22;17348;50.948;10.696;2023-03-14T17:52:36;5.00;99.90
30572;DHT22;17348;50.948;10.696;2023-03-14T17:55:38;5.00;99.90
30572;DHT22;17348;50.948;10.696;2023-03-14T17:58:42;5.00;99.90
30572;DHT22;17348;50.948;10.696;2023-03-14T18:01:45;5.00;99.90
30572;DHT22;17348;50.948;10.696;2023-03-14T18:04:48;5.00;99.90
30572;DHT22;17348;50.948;10.696;2023-03-14T18:07:53;5.00;99.90
30572;DHT22;17348;50.948;10.696;2023-03-14T18:10:56;5.10;99.90
30572;DHT22;17348;50.948;10.696;2023-03-14T18:13:59;5.10;99.90
30572;DHT22;17348;50.948;10.696;2023-03-14T18:17:04;5.10;99.90
30572;DHT22;17348;50.948;10.696;2023-03-14T18:20:11;5.10;99.90
30572;DHT22;17348;50.948;10.696;2023-03-14T18:23:16;5.00;99.90
30572;DHT22;17348;50.948;10.696;2023-03-14T18:26:18;5.00;99.90
30572;DHT22;17348;50.948;10.696;2023-03-14T18:29:21;5.00;99.90
30572;DHT22;17348;50.948;10.696;2023-03-14T18:32:23;5.00;99.90
30572;DHT22;17348;50.948;10.696;2023-03-14T18:35:26;4.90;99.90
30572;DHT22;17348;50.948;10.696;2023-03-14T18:38:29;4.90;99.90
30572;DHT22;17348;50.948;10.696;2023-03-14T18:41:34;4.90;99.90
30572;DHT22;17348;50.948;10.696;2023-03-14T18:44:36;4.80;99.90
30572;DHT22;17348;50.948;10.696;2023-03-14T18:47:38;4.70;99.90
30572;DHT22;17348;50.948;10.696;2023-03-14T18:50:41;4.60;99.90
30572;DHT22;17348;50.948;10.696;2023-03-14T18:53:44;4.50;99.90
30572;DHT22;17348;50.948;10.696;2023-03-14T18:56:49;4.50;99.90
30572;DHT22;17348;50.948;10.696;2023-03-14T18:59:54;4.40;99.90
30572;DHT22;17348;50.948;10.696;2023-03-14T19:02:58;4.30;99.90
30572;DHT22;17348;50.948;10.696;2023-03-14T19:06:03;4.30;99.90
30572;DHT22;17348;50.948;10.696;2023-03-14T19:09:12;4.20;99.90
30572;DHT22;17348;50.948;10.696;2023-03-14T19:12:15;4.20;99.90
30572;DHT22;17348;50.948;10.696;2023-03-14T19:15:17;4.10;99.90